Time;durP1;ratioP1;P1;durP2;ratioP2;P2;SDS_P1;SDS_P2;PMS_P1;PMS_P2;Temp;Humidity;BMP_temperature;BMP_pressure;BME280_temperature;BME280_humidity;BME280_pressure;Samples;Min_cycle;Max_cycle;Signal;HPM_P1;HPM_P2
2021/11/07 00:01:47;;;;;;;4.97;3.40;;;;;;;;;;5033616;28;20456;-58
2021/11/07 00:04:23;;;;;;;3.93;3.47;;;;;;;;;;5033148;28;20527;-58
2021/11/07 00:06:54;;;;;;;3.83;3.53;;;;;;;;;;5033455;28;20441;-58
2021/11/07 00:09:26;;;;;;;3.50;3.20;;;;;;;;;;5033131;28;20805;-58
2021/11/07 00:11:56;;;;;;;8.00;3.73;;;;;;;;;;5033006;28;20932;-58
2021/11/07 00:14:25;;;;;;;5.67;3.87;;;;;;;;;;5032979;28;20511;-58
2021/11/07 00:16:53;;;;;;;4.07;3.45;;;;;;;;;;5033302;28;20452;-58
2021/11/07 00:19:28;;;;;;;5.90;3.88;;;;;;;;;;5033457;28;20202;-58
2021/11/07 00:22:03;;;;;;;3.83;3.53;;;;;;;;;;5033267;28;20192;-58
2021/11/07 00:24:36;;;;;;;3.70;3.40;;;;;;;;;;5035246;28;20299;-58
2021/11/07 00:27:07;;;;;;;4.23;3.20;;;;;;;;;;5037279;28;20532;-58
2021/11/07 00:29:39;;;;;;;6.53;3.33;;;;;;;;;;5037451;28;20448;-58
2021/11/07 00:32:15;;;;;;;3.63;3.33;;;;;;;;;;5036795;28;20192;-58
2021/11/07 00:37:29;;;;;;;4.10;3.70;;;;;;;;;;5037118;28;20742;-58
2021/11/07 00:40:08;;;;;;;4.50;4.10;;;;;;;;;;5036584;28;20516;-58
2021/11/07 00:42:43;;;;;;;4.35;3.95;;;;;;;;;;5036892;28;20520;-58
2021/11/07 00:45:22;;;;;;;5.55;5.00;;;;;;;;;;5036664;28;20218;-59
2021/11/07 00:48:00;;;;;;;3.93;3.50;;;;;;;;;;5036729;28;20204;-59
2021/11/07 00:50:33;;;;;;;4.97;4.50;;;;;;;;;;5036631;28;20446;-59
2021/11/07 00:53:15;;;;;;;4.82;4.20;;;;;;;;;;5036186;28;20429;-59
2021/11/07 00:55:47;;;;;;;5.90;4.30;;;;;;;;;;5036754;28;20188;-59
2021/11/07 00:58:17;;;;;;;4.83;4.00;;;;;;;;;;5036631;28;20437;-59
2021/11/07 01:00:50;;;;;;;7.80;4.68;;;;;;;;;;5037155;28;20437;-59
2021/11/07 01:03:19;;;;;;;5.47;4.73;;;;;;;;;;5037553;28;20213;-59
2021/11/07 01:05:47;;;;;;;5.00;3.92;;;;;;;;;;5036448;28;20541;-59
2021/11/07 01:08:15;;;;;;;4.10;3.80;;;;;;;;;;5037140;28;20206;-59
2021/11/07 01:10:42;;;;;;;4.60;4.20;;;;;;;;;;5036927;28;20452;-59
2021/11/07 01:13:10;;;;;;;6.07;4.43;;;;;;;;;;5036041;28;20202;-59
2021/11/07 01:15:38;;;;;;;5.85;4.10;;;;;;;;;;5036280;28;20210;-59
2021/11/07 01:18:07;;;;;;;4.78;4.38;;;;;;;;;;5036195;28;20201;-59
2021/11/07 01:20:34;;;;;;;6.65;4.03;;;;;;;;;;5035873;28;20693;-59
2021/11/07 01:23:11;;;;;;;4.57;3.85;;;;;;;;;;5035759;28;20198;-59
2021/11/07 01:25:43;;;;;;;5.90;4.68;;;;;;;;;;5035809;28;20194;-59
2021/11/07 01:28:11;;;;;;;5.43;3.97;;;;;;;;;;5036017;28;20267;-59
2021/11/07 01:30:44;;;;;;;5.43;4.20;;;;;;;;;;5035632;28;20217;-59
2021/11/07 01:33:17;;;;;;;4.28;3.88;;;;;;;;;;5035821;28;20194;-59
2021/11/07 01:35:49;;;;;;;6.85;3.92;;;;;;;;;;5035246;28;20190;-59
2021/11/07 01:38:23;;;;;;;4.70;3.83;;;;;;;;;;5035945;28;20190;-59
2021/11/07 01:40:59;;;;;;;5.38;3.17;;;;;;;;;;5035768;28;20562;-59
2021/11/07 01:43:26;;;;;;;4.18;3.80;;;;;;;;;;5035554;28;20218;-59
2021/11/07 01:45:56;;;;;;;3.80;3.45;;;;;;;;;;5035342;28;20206;-59
2021/11/07 01:48:27;;;;;;;4.18;3.75;;;;;;;;;;5035486;28;20252;-59
2021/11/07 01:50:56;;;;;;;4.07;3.25;;;;;;;;;;5035304;28;20187;-59
2021/11/07 01:53:28;;;;;;;5.63;3.47;;;;;;;;;;5035371;28;20222;-59
2021/11/07 01:55:57;;;;;;;3.88;3.05;;;;;;;;;;5035598;28;20194;-59
2021/11/07 01:58:25;;;;;;;4.05;3.20;;;;;;;;;;5035576;28;20576;-59
2021/11/07 02:00:52;;;;;;;3.65;2.88;;;;;;;;;;5035196;28;20678;-58
2021/11/07 02:03:20;;;;;;;2.90;2.70;;;;;;;;;;5035043;28;20226;-59
2021/11/07 02:05:49;;;;;;;3.33;3.00;;;;;;;;;;5035391;28;20206;-59
2021/11/07 02:08:16;;;;;;;2.35;2.15;;;;;;;;;;5035318;28;20216;-59
2021/11/07 02:10:43;;;;;;;6.30;3.22;;;;;;;;;;5035031;28;20678;-58
2021/11/07 02:13:11;;;;;;;4.25;2.35;;;;;;;;;;5034971;28;20202;-59
2021/11/07 02:15:38;;;;;;;2.50;2.30;;;;;;;;;;5034980;28;20710;-58
2021/11/07 02:18:06;;;;;;;2.45;1.95;;;;;;;;;;5035342;28;20217;-59
2021/11/07 02:20:36;;;;;;;2.20;2.10;;;;;;;;;;5035386;28;20198;-59
2021/11/07 02:23:06;;;;;;;2.45;2.25;;;;;;;;;;5035028;28;20206;-59
2021/11/07 02:25:33;;;;;;;2.70;2.00;;;;;;;;;;5035940;28;20202;-59
2021/11/07 02:28:02;;;;;;;2.58;2.30;;;;;;;;;;5035025;28;20209;-59
2021/11/07 02:30:29;;;;;;;2.28;2.08;;;;;;;;;;5034583;28;20291;-59
2021/11/07 02:32:58;;;;;;;2.35;2.15;;;;;;;;;;5034776;28;20202;-59
2021/11/07 02:35:26;;;;;;;2.30;2.05;;;;;;;;;;5034761;28;20329;-58
2021/11/07 02:37:55;;;;;;;2.33;2.13;;;;;;;;;;5034752;28;20252;-58
2021/11/07 02:40:23;;;;;;;3.75;1.98;;;;;;;;;;5034406;28;20678;-58
2021/11/07 02:42:51;;;;;;;2.00;1.80;;;;;;;;;;5034653;28;20210;-58
2021/11/07 02:45:19;;;;;;;1.50;1.40;;;;;;;;;;5034282;28;20218;-58
2021/11/07 02:47:48;;;;;;;1.60;1.50;;;;;;;;;;5033205;28;20198;-58
2021/11/07 02:50:16;;;;;;;2.10;1.90;;;;;;;;;;5034250;28;20687;-58
2021/11/07 02:52:45;;;;;;;2.47;1.70;;;;;;;;;;5034460;28;20228;-58
2021/11/07 02:55:14;;;;;;;1.90;1.80;;;;;;;;;;5034316;28;20635;-58
2021/11/07 02:57:42;;;;;;;2.00;1.80;;;;;;;;;;5034408;28;20206;-58
2021/11/07 03:00:11;;;;;;;1.73;1.35;;;;;;;;;;5034697;28;20329;-59
2021/11/07 03:02:38;;;;;;;1.65;1.55;;;;;;;;;;5034246;28;20206;-59
2021/11/07 03:05:06;;;;;;;1.90;1.80;;;;;;;;;;5033871;28;20222;-59
2021/11/07 03:07:34;;;;;;;2.03;1.80;;;;;;;;;;5034172;28;20198;-59
2021/11/07 03:10:01;;;;;;;1.60;1.50;;;;;;;;;;5034174;28;20580;-59
2021/11/07 03:12:30;;;;;;;1.80;1.70;;;;;;;;;;5033727;28;20212;-59
2021/11/07 03:14:57;;;;;;;2.08;1.80;;;;;;;;;;5058142;22;20323;-57
2021/11/07 03:17:25;;;;;;;1.92;1.77;;;;;;;;;;5034023;28;20209;-57
2021/11/07 03:19:53;;;;;;;2.20;2.00;;;;;;;;;;5033643;28;20198;-57
2021/11/07 03:22:22;;;;;;;1.70;1.42;;;;;;;;;;5033887;28;20238;-58
2021/11/07 03:24:54;;;;;;;2.88;1.75;;;;;;;;;;5033754;28;20227;-58
2021/11/07 03:27:26;;;;;;;2.20;1.85;;;;;;;;;;5033992;28;20197;-59
2021/11/07 03:29:56;;;;;;;2.13;2.03;;;;;;;;;;5033547;28;20254;-58
2021/11/07 03:32:26;;;;;;;2.03;1.93;;;;;;;;;;5033586;28;20190;-57
2021/11/07 03:34:55;;;;;;;1.83;1.73;;;;;;;;;;5033616;28;20489;-57
2021/11/07 03:37:25;;;;;;;2.28;2.10;;;;;;;;;;5034262;28;20206;-58
2021/11/07 03:39:54;;;;;;;2.58;2.38;;;;;;;;;;5033607;28;20186;-57
2021/11/07 03:42:23;;;;;;;1.95;1.85;;;;;;;;;;5033666;28;20206;-57
2021/11/07 03:44:50;;;;;;;1.77;1.67;;;;;;;;;;5033364;28;20678;-57
2021/11/07 03:47:19;;;;;;;1.90;1.80;;;;;;;;;;5033623;28;20472;-58
2021/11/07 03:49:46;;;;;;;2.15;2.05;;;;;;;;;;5033611;28;20213;-58
2021/11/07 03:52:14;;;;;;;2.47;2.25;;;;;;;;;;5033201;28;20671;-58
2021/11/07 03:54:42;;;;;;;2.45;2.25;;;;;;;;;;5033181;28;20229;-57
2021/11/07 03:57:11;;;;;;;2.27;2.10;;;;;;;;;;5033231;28;20572;-58
2021/11/07 03:59:39;;;;;;;2.70;2.03;;;;;;;;;;5032989;28;20548;-57
2021/11/07 04:02:06;;;;;;;2.58;2.38;;;;;;;;;;5033208;28;20252;-58
2021/11/07 04:04:35;;;;;;;2.38;2.00;;;;;;;;;;5033721;28;20218;-57
2021/11/07 04:08:50;;;;;;;2.13;1.90;;;;;;;;;;5091649;27;20599;-58
2021/11/07 04:11:18;;;;;;;2.00;1.90;;;;;;;;;;5090818;28;20660;-59
2021/11/07 04:13:47;;;;;;;2.40;2.20;;;;;;;;;;5090596;28;20216;-59
2021/11/07 04:16:14;;;;;;;2.00;1.90;;;;;;;;;;5090795;28;20283;-59
2021/11/07 04:18:42;;;;;;;2.80;2.60;;;;;;;;;;5091143;28;20208;-59
2021/11/07 04:21:09;;;;;;;2.92;2.72;;;;;;;;;;5095057;22;20690;-59
2021/11/07 04:23:37;;;;;;;2.70;2.50;;;;;;;;;;5050496;28;20198;-58
2021/11/07 04:26:06;;;;;;;2.90;2.70;;;;;;;;;;5050111;28;20701;-59
2021/11/07 04:28:33;;;;;;;3.10;2.90;;;;;;;;;;5050048;28;20226;-59
2021/11/07 04:31:00;;;;;;;3.85;2.97;;;;;;;;;;5050518;28;20233;-58
2021/11/07 04:33:28;;;;;;;3.20;3.00;;;;;;;;;;5050069;28;20206;-58
2021/11/07 04:35:56;;;;;;;3.60;3.28;;;;;;;;;;5050424;28;20331;-58
2021/11/07 04:38:23;;;;;;;4.00;3.70;;;;;;;;;;5050261;28;20202;-58
2021/11/07 04:40:51;;;;;;;4.57;4.18;;;;;;;;;;5050117;28;20283;-58
2021/11/07 04:43:20;;;;;;;4.47;4.15;;;;;;;;;;5049901;28;20554;-58
2021/11/07 04:45:47;;;;;;;4.13;3.83;;;;;;;;;;5049839;28;20202;-58
2021/11/07 04:48:15;;;;;;;5.53;5.13;;;;;;;;;;5049859;28;20221;-58
2021/11/07 04:50:42;;;;;;;6.53;5.90;;;;;;;;;;5049790;28;20323;-58
2021/11/07 04:53:11;;;;;;;5.38;4.93;;;;;;;;;;5050075;28;20211;-58
2021/11/07 04:55:39;;;;;;;5.47;5.00;;;;;;;;;;5049983;28;20237;-58
2021/11/07 04:58:07;;;;;;;5.00;4.57;;;;;;;;;;5049597;28;20209;-58
2021/11/07 05:00:36;;;;;;;5.35;4.95;;;;;;;;;;5049325;28;20217;-57
2021/11/07 05:03:04;;;;;;;5.40;5.00;;;;;;;;;;5049479;28;20209;-58
2021/11/07 05:05:32;;;;;;;4.47;4.07;;;;;;;;;;5049651;28;20206;-58
2021/11/07 05:07:59;;;;;;;4.75;4.35;;;;;;;;;;5049601;28;20222;-58
2021/11/07 05:10:27;;;;;;;5.10;4.70;;;;;;;;;;5049555;28;20226;-57
2021/11/07 05:12:55;;;;;;;4.35;4.05;;;;;;;;;;5049244;28;20572;-58
2021/11/07 05:15:22;;;;;;;4.30;4.00;;;;;;;;;;5049283;28;20701;-58
2021/11/07 05:17:51;;;;;;;4.60;4.20;;;;;;;;;;5049487;28;20197;-58
2021/11/07 05:20:18;;;;;;;4.07;3.78;;;;;;;;;;5035312;28;20576;-58
2021/11/07 05:22:46;;;;;;;4.00;3.70;;;;;;;;;;5036129;28;20197;-58
2021/11/07 05:25:14;;;;;;;4.57;4.18;;;;;;;;;;5035787;28;20206;-58
2021/11/07 05:27:42;;;;;;;4.05;3.67;;;;;;;;;;5035650;28;20589;-58
2021/11/07 05:30:10;;;;;;;3.33;3.13;;;;;;;;;;5035648;28;20610;-56
2021/11/07 05:32:38;;;;;;;3.72;3.38;;;;;;;;;;5035947;28;20205;-58
2021/11/07 05:35:07;;;;;;;3.42;3.13;;;;;;;;;;5035605;28;20209;-58
2021/11/07 05:37:34;;;;;;;3.05;2.85;;;;;;;;;;5035543;28;20194;-58
2021/11/07 05:40:03;;;;;;;3.72;3.42;;;;;;;;;;5035728;28;20202;-58
2021/11/07 05:42:30;;;;;;;3.58;3.15;;;;;;;;;;5035478;28;20205;-58
2021/11/07 05:44:58;;;;;;;3.95;3.65;;;;;;;;;;5035355;28;20206;-58
2021/11/07 05:47:26;;;;;;;4.00;3.65;;;;;;;;;;5035290;28;20740;-58
2021/11/07 05:49:53;;;;;;;3.78;3.47;;;;;;;;;;5035331;28;20198;-58
2021/11/07 05:52:22;;;;;;;4.68;3.42;;;;;;;;;;5035239;28;20218;-58
2021/11/07 05:54:49;;;;;;;3.97;3.67;;;;;;;;;;5035304;28;20198;-58
2021/11/07 05:57:17;;;;;;;3.90;3.60;;;;;;;;;;5035301;28;20202;-57
2021/11/07 05:59:44;;;;;;;4.15;3.85;;;;;;;;;;5036076;28;20202;-57
2021/11/07 06:02:11;;;;;;;4.65;4.25;;;;;;;;;;5035047;28;20226;-58
2021/11/07 06:04:39;;;;;;;5.95;4.32;;;;;;;;;;5035571;28;20305;-58
2021/11/07 06:07:06;;;;;;;6.13;5.28;;;;;;;;;;5034976;28;20201;-57
2021/11/07 06:09:35;;;;;;;5.40;4.90;;;;;;;;;;5035301;28;20202;-57
2021/11/07 06:12:02;;;;;;;5.75;5.25;;;;;;;;;;5035204;28;20222;-57
2021/11/07 06:14:30;;;;;;;5.80;5.35;;;;;;;;;;5034930;28;20209;-57
2021/11/07 06:16:57;;;;;;;5.60;5.10;;;;;;;;;;5035134;28;20564;-56
2021/11/07 06:19:24;;;;;;;6.40;5.85;;;;;;;;;;5035100;28;20206;-58
2021/11/07 06:21:53;;;;;;;6.38;4.97;;;;;;;;;;5034622;28;20230;-57
2021/11/07 06:24:25;;;;;;;4.75;4.28;;;;;;;;;;5035094;28;20198;-58
2021/11/07 06:26:55;;;;;;;6.00;4.47;;;;;;;;;;5035195;28;20186;-58
2021/11/07 06:29:22;;;;;;;4.68;3.70;;;;;;;;;;5034877;28;20317;-58
2021/11/07 06:31:52;;;;;;;6.25;3.45;;;;;;;;;;5033698;28;20218;-57
2021/11/07 06:34:19;;;;;;;6.90;4.10;;;;;;;;;;5034777;28;20632;-59
2021/11/07 06:36:47;;;;;;;6.88;3.60;;;;;;;;;;5034740;28;20206;-57
2021/11/07 06:39:15;;;;;;;12.32;3.45;;;;;;;;;;5035453;28;20214;-57
2021/11/07 06:41:43;;;;;;;9.00;3.58;;;;;;;;;;5034539;28;20222;-58
2021/11/07 06:44:12;;;;;;;13.75;3.28;;;;;;;;;;5034311;28;20297;-57
2021/11/07 06:46:40;;;;;;;8.20;3.67;;;;;;;;;;5034471;28;20202;-58
2021/11/07 06:49:10;;;;;;;7.80;2.90;;;;;;;;;;5034489;28;20218;-57
2021/11/07 06:51:38;;;;;;;6.50;2.83;;;;;;;;;;5034697;28;20261;-57
2021/11/07 06:54:05;;;;;;;9.32;2.95;;;;;;;;;;5034132;28;20206;-57
2021/11/07 06:56:34;;;;;;;10.05;3.20;;;;;;;;;;5034742;28;20240;-58
2021/11/07 06:59:01;;;;;;;8.40;3.05;;;;;;;;;;5035031;28;20297;-58
2021/11/07 07:01:30;;;;;;;6.28;3.03;;;;;;;;;;5034420;28;20738;-57
2021/11/07 07:03:58;;;;;;;7.45;3.05;;;;;;;;;;5034327;28;20201;-58
2021/11/07 07:06:26;;;;;;;7.38;3.03;;;;;;;;;;5034021;28;20214;-58
2021/11/07 07:08:56;;;;;;;8.75;2.60;;;;;;;;;;5033810;28;20268;-57
2021/11/07 07:11:27;;;;;;;7.95;2.60;;;;;;;;;;5034175;28;20222;-58
2021/11/07 07:13:59;;;;;;;5.68;2.10;;;;;;;;;;5034316;28;20190;-58
2021/11/07 07:16:34;;;;;;;4.85;2.30;;;;;;;;;;5034160;28;20599;-59
2021/11/07 07:19:12;;;;;;;5.45;1.90;;;;;;;;;;5034191;28;20182;-58
2021/11/07 07:21:47;;;;;;;11.65;2.38;;;;;;;;;;5033509;28;20667;-58
2021/11/07 07:24:44;;;;;;;5.95;2.08;;;;;;;;;;5033898;28;20193;-58
2021/11/07 07:27:24;;;;;;;8.57;2.80;;;;;;;;;;5033910;28;20275;-58
2021/11/07 07:29:57;;;;;;;4.90;2.22;;;;;;;;;;5033817;28;20190;-59
2021/11/07 07:32:41;;;;;;;6.00;2.50;;;;;;;;;;5033691;28;20233;-58
2021/11/07 07:35:10;;;;;;;4.85;2.30;;;;;;;;;;5033391;28;20647;-58
2021/11/07 07:37:38;;;;;;;9.20;3.30;;;;;;;;;;5033744;28;20206;-58
2021/11/07 07:40:06;;;;;;;5.97;2.00;;;;;;;;;;5033533;28;20242;-58
2021/11/07 07:42:34;;;;;;;9.70;2.78;;;;;;;;;;5032969;28;20206;-57
2021/11/07 07:45:02;;;;;;;3.10;2.37;;;;;;;;;;5033226;28;20801;-58
2021/11/07 07:47:29;;;;;;;9.35;3.90;;;;;;;;;;5033781;28;20449;-57
2021/11/07 07:49:57;;;;;;;7.30;3.03;;;;;;;;;;5033400;28;20202;-58
2021/11/07 07:52:27;;;;;;;9.07;3.10;;;;;;;;;;5033475;28;20222;-57
2021/11/07 07:54:54;;;;;;;8.30;3.15;;;;;;;;;;5033664;28;20214;-59
2021/11/07 07:57:22;;;;;;;12.07;3.30;;;;;;;;;;5033203;28;20678;-58
2021/11/07 07:59:49;;;;;;;7.93;3.20;;;;;;;;;;5034377;28;20288;-58
2021/11/07 08:02:17;;;;;;;6.78;2.83;;;;;;;;;;5033782;28;20226;-58
2021/11/07 08:04:44;;;;;;;8.40;3.55;;;;;;;;;;5033692;28;20198;-59
2021/11/07 08:07:11;;;;;;;10.93;3.30;;;;;;;;;;5033224;28;20198;-57
2021/11/07 08:09:40;;;;;;;5.10;2.75;;;;;;;;;;5033610;28;20229;-58
2021/11/07 08:12:08;;;;;;;6.85;2.75;;;;;;;;;;5033302;28;20736;-59
2021/11/07 08:14:35;;;;;;;6.10;2.83;;;;;;;;;;5033356;28;20606;-57
2021/11/07 08:17:03;;;;;;;10.20;3.70;;;;;;;;;;5032973;28;20455;-57
2021/11/07 08:19:30;;;;;;;5.80;3.03;;;;;;;;;;5033219;28;20206;-57
2021/11/07 08:21:58;;;;;;;8.30;2.97;;;;;;;;;;5032787;28;20240;-57
2021/11/07 08:24:26;;;;;;;8.50;2.90;;;;;;;;;;5033142;28;20558;-57
2021/11/07 08:26:55;;;;;;;6.78;3.50;;;;;;;;;;5032813;28;20237;-57
2021/11/07 08:29:22;;;;;;;8.93;3.63;;;;;;;;;;5032592;28;20222;-58
2021/11/07 08:31:51;;;;;;;9.02;3.55;;;;;;;;;;5032623;28;20531;-56
2021/11/07 08:34:23;;;;;;;10.40;3.53;;;;;;;;;;5032939;28;20202;-56
2021/11/07 08:36:55;;;;;;;7.82;3.20;;;;;;;;;;5032720;28;20202;-57
2021/11/07 08:39:26;;;;;;;8.18;3.80;;;;;;;;;;5032609;28;20182;-58
2021/11/07 08:41:58;;;;;;;6.95;3.55;;;;;;;;;;5032479;28;20225;-56
2021/11/07 09:01:01;;;;;;;9.32;3.95;;;;;;;;;;5036400;28;20221;-58
2021/11/07 09:03:41;;;;;;;12.27;3.30;;;;;;;;;;5036493;28;20199;-58
2021/11/07 09:06:25;;;;;;;11.77;3.65;;;;;;;;;;5036414;28;20191;-58
2021/11/07 09:08:53;;;;;;;8.63;3.05;;;;;;;;;;5036397;28;20268;-58
2021/11/07 09:11:20;;;;;;;13.93;3.95;;;;;;;;;;5035995;28;20718;-57
2021/11/07 09:13:50;;;;;;;6.30;3.65;;;;;;;;;;5036541;28;20202;-58
2021/11/07 09:16:17;;;;;;;6.80;3.25;;;;;;;;;;5036510;28;20206;-57
2021/11/07 09:18:44;;;;;;;10.68;3.97;;;;;;;;;;5036976;28;20537;-56
2021/11/07 09:21:15;;;;;;;7.30;3.15;;;;;;;;;;5036482;28;20241;-57
2021/11/07 09:23:47;;;;;;;5.28;3.33;;;;;;;;;;5036157;28;20186;-57
2021/11/07 09:26:27;;;;;;;9.32;3.38;;;;;;;;;;5035789;28;20701;-58
2021/11/07 09:29:00;;;;;;;8.57;3.10;;;;;;;;;;5035921;28;20214;-57
2021/11/07 09:31:38;;;;;;;8.32;4.03;;;;;;;;;;5035631;28;20225;-57
2021/11/07 09:34:13;;;;;;;14.38;3.85;;;;;;;;;;5035844;28;20190;-57
2021/11/07 09:36:44;;;;;;;11.17;3.80;;;;;;;;;;5035488;28;20240;-59
2021/11/07 09:39:22;;;;;;;9.30;4.10;;;;;;;;;;5035412;28;20974;-59
2021/11/07 09:44:39;;;;;;;12.17;3.83;;;;;;;;;;5023851;28;20202;-59
2021/11/07 09:47:08;;;;;;;11.27;3.70;;;;;;;;;;5035658;28;20439;-59
2021/11/07 09:49:44;;;;;;;8.57;3.13;;;;;;;;;;5035761;28;20507;-58
2021/11/07 09:52:13;;;;;;;8.27;3.07;;;;;;;;;;5035710;28;20469;-58
2021/11/07 09:54:43;;;;;;;8.60;3.37;;;;;;;;;;5035276;28;20456;-58
2021/11/07 09:57:11;;;;;;;14.40;3.73;;;;;;;;;;5036655;28;20445;-57
2021/11/07 09:59:40;;;;;;;12.23;3.37;;;;;;;;;;5035904;28;20507;-57
2021/11/07 10:02:07;;;;;;;14.60;3.37;;;;;;;;;;5035254;28;20469;-58
2021/11/07 10:04:37;;;;;;;9.53;2.97;;;;;;;;;;5035485;28;20449;-58
2021/11/07 10:07:15;;;;;;;13.23;3.10;;;;;;;;;;5035215;28;20448;-57
2021/11/07 10:09:42;;;;;;;14.80;3.57;;;;;;;;;;5035244;28;20550;-57
2021/11/07 10:12:14;;;;;;;15.17;4.00;;;;;;;;;;5034907;28;20472;-57
2021/11/07 10:14:45;;;;;;;10.03;3.63;;;;;;;;;;5035205;28;20487;-57
2021/11/07 10:17:24;;;;;;;16.63;3.90;;;;;;;;;;5035126;28;20437;-58
2021/11/07 10:19:59;;;;;;;7.60;2.80;;;;;;;;;;5035205;28;20445;-57
2021/11/07 10:22:29;;;;;;;11.53;3.57;;;;;;;;;;5050218;22;20504;-57
2021/11/07 10:24:57;;;;;;;14.97;4.13;;;;;;;;;;5034541;28;20453;-57
2021/11/07 10:27:24;;;;;;;11.40;3.87;;;;;;;;;;5033764;28;20444;-57
2021/11/07 10:30:05;;;;;;;11.33;3.63;;;;;;;;;;5033936;28;20484;-57
2021/11/07 10:32:35;;;;;;;7.90;2.97;;;;;;;;;;5034387;28;20461;-57
2021/11/07 10:35:31;;;;;;;10.87;3.20;;;;;;;;;;5034312;28;20906;-57
2021/11/07 10:38:08;;;;;;;6.83;3.03;;;;;;;;;;5034115;28;20799;-57
2021/11/07 10:40:46;;;;;;;15.03;3.77;;;;;;;;;;5034227;28;20920;-56
2021/11/07 10:43:41;;;;;;;8.60;2.87;;;;;;;;;;5034320;28;20901;-57
2021/11/07 10:46:31;;;;;;;12.53;3.57;;;;;;;;;;5034283;28;20500;-57
2021/11/07 10:52:06;;;;;;;13.17;3.70;;;;;;;;;;5034504;28;20440;-57
2021/11/07 10:54:40;;;;;;;12.40;3.37;;;;;;;;;;5034356;28;20444;-56
2021/11/07 10:57:19;;;;;;;17.10;3.67;;;;;;;;;;5034137;28;20448;-56
2021/11/07 11:00:06;;;;;;;15.53;4.10;;;;;;;;;;5034113;28;20445;-57
2021/11/07 11:02:39;;;;;;;8.20;2.30;;;;;;;;;;5034427;28;20460;-56
2021/11/07 11:05:08;;;;;;;9.67;3.23;;;;;;;;;;5034347;28;20439;-57
2021/11/07 11:07:49;;;;;;;10.83;2.97;;;;;;;;;;5034431;28;20806;-56
2021/11/07 11:10:17;;;;;;;11.87;3.80;;;;;;;;;;5034175;28;20461;-56
2021/11/07 11:13:05;;;;;;;9.47;3.30;;;;;;;;;;5033986;28;20985;-57
2021/11/07 11:15:39;;;;;;;12.70;3.30;;;;;;;;;;5034161;28;20820;-58
2021/11/07 11:18:29;;;;;;;10.07;2.50;;;;;;;;;;5033476;28;20888;-56
2021/11/07 11:27:12;;;;;;;12.57;2.67;;;;;;;;;;5028235;28;20956;-56
2021/11/07 11:32:42;;;;;;;7.30;2.60;;;;;;;;;;5020626;28;20972;-56
2021/11/07 11:35:15;;;;;;;14.53;2.93;;;;;;;;;;5033588;28;20448;-56
2021/11/07 11:37:51;;;;;;;10.00;3.03;;;;;;;;;;5033581;28;20475;-57
2021/11/07 11:40:22;;;;;;;15.57;3.83;;;;;;;;;;5033580;28;20432;-57
2021/11/07 11:42:54;;;;;;;8.67;3.10;;;;;;;;;;5033473;28;20465;-55
2021/11/07 11:45:25;;;;;;;10.10;2.57;;;;;;;;;;5033390;28;20429;-56
2021/11/07 11:48:04;;;;;;;8.50;2.83;;;;;;;;;;5033446;28;20433;-57
2021/11/07 11:50:50;;;;;;;14.53;3.70;;;;;;;;;;5033288;28;20555;-56
2021/11/07 11:53:30;;;;;;;11.40;2.87;;;;;;;;;;5033001;28;20468;-56
2021/11/07 11:56:15;;;;;;;12.13;2.70;;;;;;;;;;5032986;28;20864;-57
2021/11/07 11:58:48;;;;;;;14.20;3.80;;;;;;;;;;5033253;28;20429;-57
2021/11/07 12:01:20;;;;;;;7.57;2.80;;;;;;;;;;5032888;28;20480;-57
2021/11/07 12:04:05;;;;;;;5.40;2.30;;;;;;;;;;5033134;28;20421;-57
2021/11/07 12:06:42;;;;;;;5.27;2.10;;;;;;;;;;5033591;28;20479;-56
2021/11/07 12:09:19;;;;;;;13.00;4.30;;;;;;;;;;5032916;28;20500;-56
2021/11/07 12:11:51;;;;;;;9.60;2.30;;;;;;;;;;5033176;28;20990;-57
2021/11/07 12:14:25;;;;;;;8.27;2.90;;;;;;;;;;5033897;28;20901;-57
2021/11/07 12:16:55;;;;;;;9.37;3.23;;;;;;;;;;5033968;28;20433;-57
2021/11/07 12:19:23;;;;;;;13.67;2.87;;;;;;;;;;5033619;28;20531;-58
2021/11/07 12:22:02;;;;;;;11.00;2.80;;;;;;;;;;5032584;28;20483;-56
2021/11/07 12:24:32;;;;;;;5.20;2.73;;;;;;;;;;5033036;28;20437;-57
2021/11/07 12:27:18;;;;;;;9.13;3.03;;;;;;;;;;5032840;28;20479;-55
2021/11/07 12:29:46;;;;;;;8.87;2.60;;;;;;;;;;5035317;28;20491;-57
2021/11/07 12:32:14;;;;;;;11.90;2.97;;;;;;;;;;5036834;28;20457;-57
2021/11/07 12:35:02;;;;;;;10.90;3.03;;;;;;;;;;5036963;28;20445;-57
2021/11/07 12:40:39;;;;;;;6.03;2.70;;;;;;;;;;5036596;28;20416;-56
2021/11/07 12:43:07;;;;;;;4.73;1.80;;;;;;;;;;5044838;28;20468;-57
2021/11/07 12:45:38;;;;;;;10.83;2.20;;;;;;;;;;5044550;28;20441;-57
2021/11/07 12:48:07;;;;;;;7.53;1.70;;;;;;;;;;5043794;28;20433;-57
2021/11/07 12:50:56;;;;;;;8.37;2.93;;;;;;;;;;5042412;28;20481;-56
2021/11/07 12:53:25;;;;;;;13.13;3.00;;;;;;;;;;5040149;28;20479;-56
2021/11/07 12:55:53;;;;;;;12.90;2.00;;;;;;;;;;5043354;28;20475;-58
2021/11/07 12:58:20;;;;;;;12.97;2.80;;;;;;;;;;5043901;28;20443;-57
2021/11/07 13:00:48;;;;;;;5.90;2.30;;;;;;;;;;5045069;28;20444;-57
2021/11/07 13:03:16;;;;;;;8.10;2.30;;;;;;;;;;5047123;28;20467;-56
2021/11/07 13:05:44;;;;;;;6.27;2.13;;;;;;;;;;5048863;28;20452;-57
2021/11/07 13:08:18;;;;;;;5.73;2.73;;;;;;;;;;5042790;28;20444;-57
2021/11/07 13:10:52;;;;;;;7.90;2.33;;;;;;;;;;5047059;28;20473;-57
2021/11/07 13:13:25;;;;;;;8.33;2.60;;;;;;;;;;5048056;28;20911;-57
2021/11/07 13:16:02;;;;;;;8.30;2.57;;;;;;;;;;5049122;28;20440;-57
2021/11/07 13:21:23;;;;;;;6.33;2.63;;;;;;;;;;5039146;28;20441;-58
2021/11/07 13:27:06;;;;;;;10.97;2.40;;;;;;;;;;5036677;28;20421;-57
2021/11/07 13:29:38;;;;;;;9.60;2.77;;;;;;;;;;5036572;28;20465;-57
2021/11/07 13:34:55;;;;;;;8.27;2.90;;;;;;;;;;5032599;28;20425;-58
2021/11/07 13:37:22;;;;;;;9.07;2.50;;;;;;;;;;5035777;28;20459;-57
2021/11/07 13:39:50;;;;;;;7.93;2.10;;;;;;;;;;5035743;28;20443;-57
2021/11/07 13:42:19;;;;;;;15.63;2.73;;;;;;;;;;5035819;28;20515;-57
2021/11/07 13:44:49;;;;;;;8.57;3.50;;;;;;;;;;5035818;28;20452;-57
2021/11/07 13:47:16;;;;;;;12.60;3.07;;;;;;;;;;5036406;28;20463;-57
2021/11/07 13:49:48;;;;;;;8.50;2.63;;;;;;;;;;5035560;28;20987;-56
2021/11/07 13:52:15;;;;;;;9.47;2.63;;;;;;;;;;5035650;28;20465;-56
2021/11/07 13:54:42;;;;;;;9.03;3.87;;;;;;;;;;5035650;28;20944;-57
2021/11/07 13:57:10;;;;;;;6.40;2.33;;;;;;;;;;5036489;28;20814;-56
2021/11/07 13:59:40;;;;;;;10.00;2.60;;;;;;;;;;5036331;28;20444;-57
2021/11/07 14:02:12;;;;;;;7.67;3.27;;;;;;;;;;5036564;28;20847;-57
2021/11/07 14:04:41;;;;;;;10.53;2.30;;;;;;;;;;5035771;28;20433;-57
2021/11/07 14:07:15;;;;;;;7.13;2.27;;;;;;;;;;5035884;28;20445;-57
2021/11/07 14:09:59;;;;;;;10.23;3.00;;;;;;;;;;5035393;28;20483;-57
2021/11/07 14:12:34;;;;;;;5.40;2.40;;;;;;;;;;5035061;28;20523;-56
2021/11/07 14:15:08;;;;;;;6.83;1.90;;;;;;;;;;5035303;28;21016;-56
2021/11/07 14:17:36;;;;;;;9.55;2.10;;;;;;;;;;5035425;28;20483;-56
2021/11/07 14:20:04;;;;;;;4.00;1.40;;;;;;;;;;5035016;28;20249;-57
2021/11/07 14:22:32;;;;;;;2.47;1.20;;;;;;;;;;5034715;28;20484;-56
2021/11/07 14:25:04;;;;;;;6.22;1.50;;;;;;;;;;5034769;28;20720;-56
2021/11/07 14:27:35;;;;;;;2.72;1.55;;;;;;;;;;5034933;28;20224;-57
2021/11/07 14:30:06;;;;;;;8.27;1.65;;;;;;;;;;5034403;28;20202;-56
2021/11/07 14:32:36;;;;;;;5.88;1.45;;;;;;;;;;5034568;28;20222;-57
2021/11/07 14:35:08;;;;;;;6.65;1.70;;;;;;;;;;5034921;28;20217;-56
2021/11/07 14:37:39;;;;;;;4.63;1.50;;;;;;;;;;5035446;28;20195;-57
2021/11/07 14:40:09;;;;;;;4.28;1.63;;;;;;;;;;5035096;28;20190;-56
2021/11/07 14:42:49;;;;;;;5.75;1.73;;;;;;;;;;5035019;28;20275;-57
2021/11/07 14:48:36;;;;;;;5.47;3.00;;;;;;;;;;5032118;28;20680;-56
2021/11/07 14:54:00;;;;;;;6.78;2.00;;;;;;;;;;5028880;28;20244;-58
2021/11/07 14:56:33;;;;;;;7.35;2.28;;;;;;;;;;5034811;28;20201;-57
2021/11/07 15:01:44;;;;;;;3.53;1.52;;;;;;;;;;5033345;28;20214;-57
2021/11/07 15:04:18;;;;;;;3.17;1.80;;;;;;;;;;5034414;28;20198;-56
2021/11/07 15:07:00;;;;;;;4.45;2.17;;;;;;;;;;5034327;28;20561;-57
2021/11/07 15:09:30;;;;;;;3.65;1.42;;;;;;;;;;5034136;28;20218;-57
2021/11/07 15:15:35;;;;;;;6.18;2.15;;;;;;;;;;5033978;28;20189;-58
2021/11/07 15:18:21;;;;;;;5.90;1.95;;;;;;;;;;5034613;28;20288;-57
2021/11/07 15:20:56;;;;;;;5.55;1.45;;;;;;;;;;5033735;28;20739;-57
2021/11/07 15:23:27;;;;;;;7.75;1.52;;;;;;;;;;5033836;28;20224;-56
2021/11/07 15:25:55;;;;;;;2.10;1.50;;;;;;;;;;5033916;28;20206;-55
2021/11/07 15:28:25;;;;;;;5.20;1.73;;;;;;;;;;5033474;28;20202;-57
2021/11/07 15:30:53;;;;;;;4.47;1.48;;;;;;;;;;5033678;28;20222;-57
2021/11/07 15:33:21;;;;;;;8.18;2.30;;;;;;;;;;5033993;28;20226;-57
2021/11/07 15:35:53;;;;;;;3.15;1.35;;;;;;;;;;5034140;28;20245;-57
2021/11/07 15:38:21;;;;;;;5.50;2.50;;;;;;;;;;5033735;28;20182;-57
2021/11/07 15:40:50;;;;;;;6.40;2.15;;;;;;;;;;5033475;28;20237;-57
2021/11/07 15:43:18;;;;;;;4.25;1.80;;;;;;;;;;5033392;28;20745;-57
2021/11/07 15:48:38;;;;;;;6.28;2.15;;;;;;;;;;5028797;28;20205;-56
2021/11/07 15:51:22;;;;;;;5.28;1.70;;;;;;;;;;5034162;28;20222;-57
2021/11/07 15:53:58;;;;;;;4.40;1.80;;;;;;;;;;5033746;28;20222;-57
2021/11/07 15:56:31;;;;;;;6.45;2.22;;;;;;;;;;5033230;28;20197;-56
2021/11/07 15:59:15;;;;;;;6.05;2.45;;;;;;;;;;5033038;28;20569;-56
2021/11/07 16:01:45;;;;;;;6.60;2.13;;;;;;;;;;5033219;28;20229;-57
2021/11/07 16:04:26;;;;;;;8.35;2.17;;;;;;;;;;5033346;28;20572;-57
2021/11/07 16:07:03;;;;;;;6.53;2.45;;;;;;;;;;5033051;28;20281;-56